QTR8390 HECA-LIME
Flight info
| Callsign | QTR8390 |
|---|---|
| Flight time | N/A |
| Altitude | 32000 |
| Route | CVO L617 TANSA UL613 KOR UL53 KRK UL995 TIGRA DCT KAPPO DCT VIE DCT LIKNO/N0409F180 Q95 BOA Y504 OSBUL |
| Aircraft | B77L/H-SDE1E2E3FGHIJ2J3J4J5M1RWXY/LB1D1 |
Departure
| Time | 2026-04-27 12:03 |
|---|---|
| Airport | Cairo International Airport (HECA) |
Arrival
| Time | N/A |
|---|---|
| Airport | Il Caravaggio International Airport (LIME) |
| Time | Latitude | Longitude | Altitude | Speed | Heading |
|---|---|---|---|---|---|
| 2026-04-27 11:41 | 30.11765 | 31.41028 | 393 ft | 0 kts | 253° |
| 2026-04-27 11:54 | 30.11769 | 31.41042 | 393 ft | 2 kts | 253° |
| 2026-04-27 11:54 | 30.11773 | 31.41058 | 393 ft | 2 kts | 252° |
| 2026-04-27 11:54 | 30.11778 | 31.41075 | 393 ft | 2 kts | 252° |
| 2026-04-27 11:55 | 30.11782 | 31.41091 | 393 ft | 2 kts | 253° |
| 2026-04-27 11:55 | 30.11785 | 31.41102 | 393 ft | 2 kts | 246° |
| 2026-04-27 11:55 | 30.11794 | 31.41116 | 393 ft | 2 kts | 208° |
| 2026-04-27 11:55 | 30.11809 | 31.41121 | 393 ft | 2 kts | 178° |
| 2026-04-27 11:56 | 30.11817 | 31.41120 | 393 ft | 1 kts | 165° |
| 2026-04-27 11:56 | 30.11820 | 31.41119 | 393 ft | 0 kts | 166° |
| 2026-04-27 11:56 | 30.11819 | 31.41119 | 393 ft | 0 kts | 166° |
| 2026-04-27 11:58 | 30.11808 | 31.41122 | 393 ft | 2 kts | 166° |
| 2026-04-27 11:58 | 30.11777 | 31.41131 | 393 ft | 6 kts | 165° |
| 2026-04-27 11:58 | 30.11720 | 31.41149 | 393 ft | 10 kts | 162° |
| 2026-04-27 11:59 | 30.11647 | 31.41176 | 393 ft | 11 kts | 161° |
| 2026-04-27 11:59 | 30.11548 | 31.41214 | 393 ft | 19 kts | 161° |
| 2026-04-27 11:59 | 30.11423 | 31.41264 | 393 ft | 17 kts | 153° |
| 2026-04-27 11:59 | 30.11422 | 31.41362 | 393 ft | 13 kts | 51° |
| 2026-04-27 12:00 | 30.11483 | 31.41441 | 393 ft | 14 kts | 47° |
| 2026-04-27 12:00 | 30.11575 | 31.41558 | 393 ft | 23 kts | 50° |
| 2026-04-27 12:00 | 30.11698 | 31.41723 | 393 ft | 27 kts | 48° |
| 2026-04-27 12:00 | 30.11819 | 31.41881 | 393 ft | 25 kts | 48° |
| 2026-04-27 12:01 | 30.11928 | 31.42027 | 393 ft | 22 kts | 49° |
| 2026-04-27 12:01 | 30.12030 | 31.42163 | 394 ft | 25 kts | 48° |
| 2026-04-27 12:01 | 30.12146 | 31.42310 | 394 ft | 23 kts | 47° |
| 2026-04-27 12:01 | 30.12244 | 31.42442 | 394 ft | 21 kts | 52° |
| 2026-04-27 12:02 | 30.12359 | 31.42601 | 394 ft | 28 kts | 49° |
| 2026-04-27 12:02 | 30.12473 | 31.42770 | 394 ft | 25 kts | 74° |
| 2026-04-27 12:02 | 30.12400 | 31.42917 | 394 ft | 22 kts | 168° |
| 2026-04-27 12:02 | 30.12233 | 31.42826 | 394 ft | 34 kts | 226° |
| 2026-04-27 12:03 | 30.11948 | 31.42450 | 394 ft | 93 kts | 229° |
| 2026-04-27 12:03 | 30.11388 | 31.41708 | 394 ft | 150 kts | 229° |
| 2026-04-27 12:03 | 30.10582 | 31.40648 | 469 ft | 191 kts | 230° |
| 2026-04-27 12:03 | 30.09690 | 31.39519 | 1039 ft | 195 kts | 230° |
| 2026-04-27 12:04 | 30.08736 | 31.38330 | 1614 ft | 209 kts | 231° |
| 2026-04-27 12:04 | 30.07745 | 31.37103 | 2362 ft | 212 kts | 230° |
| 2026-04-27 12:04 | 30.06686 | 31.35808 | 2902 ft | 229 kts | 231° |
| 2026-04-27 12:04 | 30.05588 | 31.34396 | 3400 ft | 248 kts | 232° |
| 2026-04-27 12:05 | 30.04403 | 31.32828 | 3921 ft | 268 kts | 232° |
| 2026-04-27 12:05 | 30.03143 | 31.31158 | 4585 ft | 282 kts | 232° |
| 2026-04-27 12:05 | 30.01853 | 31.29437 | 5489 ft | 286 kts | 232° |
| 2026-04-27 12:05 | 30.00672 | 31.27608 | 6340 ft | 287 kts | 248° |
| 2026-04-27 12:06 | 30.00195 | 31.25418 | 7061 ft | 286 kts | 274° |
| 2026-04-27 12:06 | 30.00609 | 31.23220 | 7946 ft | 279 kts | 299° |
| 2026-04-27 12:06 | 30.01710 | 31.21502 | 9055 ft | 266 kts | 319° |
| 2026-04-27 12:06 | 30.03165 | 31.20183 | 9913 ft | 265 kts | 324° |
| 2026-04-27 12:07 | 30.04658 | 31.18922 | 10547 ft | 274 kts | 325° |
| 2026-04-27 12:07 | 30.06264 | 31.17572 | 10976 ft | 293 kts | 325° |
| 2026-04-27 12:07 | 30.07962 | 31.16146 | 11414 ft | 310 kts | 325° |
| 2026-04-27 12:07 | 30.09737 | 31.14653 | 11901 ft | 325 kts | 325° |
| 2026-04-27 12:08 | 30.11604 | 31.13083 | 12412 ft | 339 kts | 325° |
| 2026-04-27 12:08 | 30.13565 | 31.11434 | 12930 ft | 353 kts | 325° |
| 2026-04-27 12:08 | 30.15558 | 31.09756 | 13685 ft | 359 kts | 324° |
| 2026-04-27 12:08 | 30.17568 | 31.08063 | 14574 ft | 361 kts | 324° |
| 2026-04-27 12:09 | 30.19602 | 31.06350 | 15444 ft | 363 kts | 324° |
| 2026-04-27 12:09 | 30.21636 | 31.04635 | 16257 ft | 367 kts | 324° |
| 2026-04-27 12:09 | 30.23724 | 31.02874 | 16957 ft | 373 kts | 324° |
| 2026-04-27 12:09 | 30.25836 | 31.01092 | 17617 ft | 379 kts | 324° |
| 2026-04-27 12:10 | 30.27976 | 30.99287 | 18322 ft | 384 kts | 324° |
| 2026-04-27 12:10 | 30.30124 | 30.97474 | 19059 ft | 387 kts | 323° |
| 2026-04-27 12:10 | 30.32321 | 30.95619 | 19816 ft | 390 kts | 323° |
| 2026-04-27 12:10 | 30.34516 | 30.93764 | 20506 ft | 394 kts | 323° |
| 2026-04-27 12:11 | 30.36729 | 30.91893 | 21163 ft | 399 kts | 323° |
| 2026-04-27 12:11 | 30.38999 | 30.89973 | 21818 ft | 403 kts | 323° |
| 2026-04-27 12:11 | 30.41260 | 30.88060 | 22466 ft | 406 kts | 323° |
| 2026-04-27 12:11 | 30.43554 | 30.86117 | 23044 ft | 411 kts | 323° |
| 2026-04-27 12:12 | 30.45872 | 30.84154 | 23643 ft | 415 kts | 323° |
| 2026-04-27 12:12 | 30.48210 | 30.82173 | 24206 ft | 420 kts | 322° |
| 2026-04-27 12:12 | 30.50587 | 30.80157 | 24739 ft | 424 kts | 322° |
| 2026-04-27 12:12 | 30.52983 | 30.78125 | 25243 ft | 429 kts | 322° |
| 2026-04-27 12:13 | 30.55394 | 30.76078 | 25836 ft | 432 kts | 322° |
| 2026-04-27 12:13 | 30.57822 | 30.74017 | 26404 ft | 435 kts | 322° |
| 2026-04-27 12:13 | 30.60284 | 30.71924 | 26900 ft | 440 kts | 322° |
| 2026-04-27 12:13 | 30.62781 | 30.69802 | 27394 ft | 445 kts | 322° |
| 2026-04-27 12:14 | 30.65285 | 30.67671 | 27911 ft | 449 kts | 322° |
| 2026-04-27 12:14 | 30.67807 | 30.65525 | 28448 ft | 452 kts | 321° |
| 2026-04-27 12:14 | 30.70354 | 30.63356 | 28997 ft | 455 kts | 321° |
| 2026-04-27 12:14 | 30.72906 | 30.61182 | 29607 ft | 457 kts | 321° |
| 2026-04-27 12:15 | 30.75492 | 30.58978 | 30281 ft | 456 kts | 321° |
| 2026-04-27 12:15 | 30.78048 | 30.56799 | 30980 ft | 453 kts | 321° |
| 2026-04-27 12:15 | 30.80604 | 30.54620 | 31691 ft | 449 kts | 321° |
| 2026-04-27 12:15 | 30.83167 | 30.52432 | 32317 ft | 446 kts | 321° |
| 2026-04-27 12:16 | 30.85720 | 30.50252 | 32859 ft | 445 kts | 320° |
| 2026-04-27 12:16 | 30.88234 | 30.48105 | 33355 ft | 444 kts | 320° |
| 2026-04-27 12:16 | 30.90743 | 30.45960 | 33799 ft | 444 kts | 320° |
| 2026-04-27 12:16 | 30.93252 | 30.43813 | 33949 ft | 447 kts | 320° |
| 2026-04-27 12:17 | 30.95762 | 30.41667 | 33967 ft | 445 kts | 320° |
| 2026-04-27 12:17 | 31.00746 | 30.37402 | 33971 ft | 442 kts | 320° |
| 2026-04-27 12:18 | 31.05588 | 30.32972 | 33984 ft | 442 kts | 312° |
| 2026-04-27 12:18 | 31.09360 | 30.27356 | 33985 ft | 435 kts | 298° |
| 2026-04-27 12:19 | 31.11681 | 30.20887 | 33996 ft | 435 kts | 288° |
| 2026-04-27 12:19 | 31.13538 | 30.14175 | 33999 ft | 434 kts | 287° |
| 2026-04-27 12:20 | 31.15373 | 30.07475 | 34004 ft | 434 kts | 287° |
| 2026-04-27 12:20 | 31.17204 | 30.00752 | 34013 ft | 434 kts | 287° |
| 2026-04-27 12:21 | 31.19447 | 29.94242 | 34005 ft | 434 kts | 298° |
| 2026-04-27 12:21 | 31.22868 | 29.88445 | 34017 ft | 435 kts | 304° |
| 2026-04-27 12:22 | 31.26448 | 29.82734 | 34016 ft | 436 kts | 304° |
| 2026-04-27 12:22 | 31.30045 | 29.76977 | 34010 ft | 436 kts | 304° |
| 2026-04-27 12:23 | 31.33625 | 29.71234 | 34012 ft | 435 kts | 304° |
| 2026-04-27 12:23 | 31.37208 | 29.65475 | 34008 ft | 435 kts | 304° |
| 2026-04-27 12:24 | 31.40763 | 29.59749 | 34007 ft | 436 kts | 304° |
| 2026-04-27 12:24 | 31.44338 | 29.53984 | 34008 ft | 436 kts | 304° |
| 2026-04-27 12:25 | 31.47897 | 29.48234 | 34012 ft | 436 kts | 304° |
| 2026-04-27 12:25 | 31.51472 | 29.42449 | 34015 ft | 436 kts | 304° |
| 2026-04-27 12:26 | 31.55024 | 29.36695 | 34013 ft | 437 kts | 304° |
| 2026-04-27 12:26 | 31.58568 | 29.30944 | 34030 ft | 436 kts | 304° |
| 2026-04-27 12:27 | 31.62114 | 29.25166 | 34031 ft | 436 kts | 304° |
| 2026-04-27 12:27 | 31.65646 | 29.19400 | 34033 ft | 437 kts | 304° |
| 2026-04-27 12:28 | 31.69183 | 29.13617 | 34029 ft | 436 kts | 304° |
| 2026-04-27 12:28 | 31.72805 | 29.07909 | 34035 ft | 437 kts | 310° |
| 2026-04-27 12:29 | 31.77300 | 29.03131 | 34037 ft | 442 kts | 318° |
| 2026-04-27 12:29 | 31.82062 | 28.98561 | 34029 ft | 442 kts | 318° |
| 2026-04-27 12:30 | 31.86821 | 28.93983 | 34034 ft | 441 kts | 318° |
| 2026-04-27 12:30 | 31.91543 | 28.89428 | 34036 ft | 442 kts | 318° |
| 2026-04-27 12:31 | 31.96279 | 28.84855 | 34038 ft | 440 kts | 318° |
| 2026-04-27 12:31 | 32.01026 | 28.80260 | 34038 ft | 440 kts | 318° |
| 2026-04-27 12:32 | 32.05745 | 28.75688 | 34035 ft | 441 kts | 318° |
| 2026-04-27 12:32 | 32.10471 | 28.71101 | 34031 ft | 441 kts | 318° |
| 2026-04-27 12:33 | 32.15211 | 28.66495 | 34039 ft | 440 kts | 318° |
| 2026-04-27 12:33 | 32.19936 | 28.61896 | 34036 ft | 441 kts | 318° |
| 2026-04-27 12:34 | 32.24643 | 28.57309 | 34037 ft | 440 kts | 318° |
| 2026-04-27 12:34 | 32.29341 | 28.52725 | 34032 ft | 439 kts | 318° |
| 2026-04-27 12:35 | 32.34058 | 28.48115 | 34035 ft | 440 kts | 318° |
| 2026-04-27 12:35 | 32.38758 | 28.43515 | 34033 ft | 441 kts | 318° |
| 2026-04-27 12:36 | 32.43495 | 28.38873 | 34027 ft | 441 kts | 318° |
| 2026-04-27 12:36 | 32.48181 | 28.34274 | 34034 ft | 441 kts | 318° |
| 2026-04-27 12:37 | 32.52909 | 28.29628 | 34036 ft | 440 kts | 318° |
| 2026-04-27 12:37 | 32.57622 | 28.24989 | 34045 ft | 441 kts | 318° |
| 2026-04-27 12:38 | 32.62340 | 28.20339 | 34053 ft | 441 kts | 318° |
| 2026-04-27 12:38 | 32.67034 | 28.15706 | 34055 ft | 441 kts | 318° |
| 2026-04-27 12:39 | 32.71738 | 28.11057 | 34060 ft | 442 kts | 318° |
| 2026-04-27 12:39 | 32.76469 | 28.06375 | 34060 ft | 441 kts | 318° |
| 2026-04-27 12:40 | 32.81193 | 28.01692 | 34058 ft | 443 kts | 318° |
| 2026-04-27 12:40 | 32.85924 | 27.96996 | 34057 ft | 444 kts | 318° |
| 2026-04-27 12:41 | 32.90638 | 27.92310 | 34054 ft | 444 kts | 318° |
| 2026-04-27 12:41 | 32.95397 | 27.87573 | 34055 ft | 445 kts | 318° |
| 2026-04-27 12:42 | 33.00125 | 27.82860 | 34047 ft | 445 kts | 318° |
| 2026-04-27 12:42 | 33.04869 | 27.78124 | 34055 ft | 444 kts | 318° |
| 2026-04-27 12:43 | 33.09573 | 27.73421 | 34044 ft | 444 kts | 318° |
| 2026-04-27 12:43 | 33.14307 | 27.68681 | 34059 ft | 443 kts | 318° |
| 2026-04-27 12:44 | 33.19031 | 27.63944 | 34054 ft | 444 kts | 318° |
| 2026-04-27 12:44 | 33.23721 | 27.59236 | 34047 ft | 442 kts | 318° |
| 2026-04-27 12:45 | 33.28451 | 27.54479 | 34049 ft | 442 kts | 318° |
| 2026-04-27 12:45 | 33.33157 | 27.49739 | 34043 ft | 443 kts | 318° |
| 2026-04-27 12:46 | 33.37830 | 27.45026 | 34043 ft | 442 kts | 318° |
| 2026-04-27 12:46 | 33.42537 | 27.40272 | 34048 ft | 442 kts | 318° |
| 2026-04-27 12:47 | 33.47225 | 27.35530 | 34041 ft | 443 kts | 318° |
| 2026-04-27 12:47 | 33.51937 | 27.30756 | 34050 ft | 442 kts | 318° |
| 2026-04-27 12:48 | 33.56610 | 27.26016 | 34050 ft | 442 kts | 318° |
| 2026-04-27 12:48 | 33.61310 | 27.21240 | 34044 ft | 442 kts | 318° |
| 2026-04-27 12:49 | 33.65957 | 27.16512 | 34038 ft | 442 kts | 317° |
| 2026-04-27 12:49 | 33.70640 | 27.11740 | 34036 ft | 442 kts | 318° |
| 2026-04-27 12:50 | 33.75368 | 27.06914 | 34039 ft | 444 kts | 318° |
| 2026-04-27 12:50 | 33.80070 | 27.02109 | 34038 ft | 443 kts | 318° |
| 2026-04-27 12:51 | 33.84740 | 26.97329 | 34035 ft | 443 kts | 318° |
| 2026-04-27 12:51 | 33.89443 | 26.92508 | 34039 ft | 443 kts | 318° |
| 2026-04-27 12:52 | 33.94132 | 26.87694 | 34040 ft | 443 kts | 318° |
| 2026-04-27 12:52 | 33.98806 | 26.82889 | 34039 ft | 443 kts | 318° |
| 2026-04-27 12:53 | 34.06090 | 26.75945 | 34037 ft | 444 kts | 321° |
| 2026-04-27 12:53 | 34.10993 | 26.71430 | 34038 ft | 443 kts | 321° |
| 2026-04-27 12:54 | 34.15864 | 26.66919 | 34041 ft | 442 kts | 321° |
| 2026-04-27 12:54 | 34.20777 | 26.62353 | 34037 ft | 443 kts | 321° |
| 2026-04-27 12:55 | 34.25629 | 26.57834 | 34038 ft | 441 kts | 321° |
| 2026-04-27 12:55 | 34.30475 | 26.53310 | 34039 ft | 442 kts | 321° |
| 2026-04-27 12:56 | 34.35335 | 26.48765 | 34038 ft | 442 kts | 321° |
| 2026-04-27 12:56 | 34.40200 | 26.44209 | 34036 ft | 441 kts | 320° |
| 2026-04-27 12:57 | 34.45065 | 26.39646 | 34038 ft | 441 kts | 321° |
| 2026-04-27 12:57 | 34.49882 | 26.35120 | 34038 ft | 440 kts | 321° |
| 2026-04-27 12:58 | 34.54716 | 26.30572 | 34044 ft | 440 kts | 320° |
| 2026-04-27 12:58 | 34.59554 | 26.26013 | 34045 ft | 440 kts | 320° |
| 2026-04-27 12:59 | 34.64362 | 26.21476 | 34040 ft | 438 kts | 320° |
| 2026-04-27 12:59 | 34.69175 | 26.16926 | 34041 ft | 438 kts | 320° |
| 2026-04-27 13:00 | 34.73970 | 26.12388 | 34039 ft | 437 kts | 320° |
| 2026-04-27 13:00 | 34.78737 | 26.07867 | 34041 ft | 438 kts | 320° |
| 2026-04-27 13:01 | 34.83565 | 26.03284 | 34034 ft | 437 kts | 320° |
| 2026-04-27 13:01 | 34.88328 | 25.98754 | 34033 ft | 437 kts | 320° |
| 2026-04-27 13:02 | 34.93118 | 25.94192 | 34032 ft | 438 kts | 320° |
| 2026-04-27 13:02 | 34.97912 | 25.89619 | 34031 ft | 436 kts | 320° |
| 2026-04-27 13:03 | 35.02680 | 25.85064 | 34028 ft | 438 kts | 320° |
| 2026-04-27 13:03 | 35.07482 | 25.80470 | 34027 ft | 438 kts | 320° |
| 2026-04-27 13:04 | 35.12277 | 25.75867 | 34033 ft | 437 kts | 320° |
| 2026-04-27 13:04 | 35.17068 | 25.71242 | 34037 ft | 439 kts | 320° |
| 2026-04-27 13:05 | 35.21837 | 25.66635 | 34049 ft | 438 kts | 320° |
| 2026-04-27 13:05 | 35.26618 | 25.62034 | 34062 ft | 438 kts | 320° |
| 2026-04-27 13:06 | 35.31402 | 25.57423 | 34067 ft | 438 kts | 320° |
| 2026-04-27 13:06 | 35.36171 | 25.52820 | 34070 ft | 439 kts | 320° |
| 2026-04-27 13:07 | 35.40943 | 25.48207 | 34066 ft | 439 kts | 320° |
| 2026-04-27 13:07 | 35.45760 | 25.43543 | 34054 ft | 441 kts | 320° |
| 2026-04-27 13:08 | 35.50543 | 25.38904 | 34044 ft | 441 kts | 320° |
| 2026-04-27 13:08 | 35.55352 | 25.34232 | 34049 ft | 442 kts | 319° |
| 2026-04-27 13:09 | 35.60166 | 25.29548 | 34052 ft | 442 kts | 319° |
| 2026-04-27 13:09 | 35.64993 | 25.24845 | 34049 ft | 440 kts | 319° |
| 2026-04-27 13:10 | 35.69772 | 25.20180 | 34047 ft | 442 kts | 319° |
| 2026-04-27 13:10 | 35.74579 | 25.15481 | 34048 ft | 442 kts | 319° |
| 2026-04-27 13:11 | 35.79386 | 25.10776 | 34046 ft | 442 kts | 319° |
| 2026-04-27 13:11 | 35.84206 | 25.06049 | 34049 ft | 443 kts | 319° |
| 2026-04-27 13:12 | 35.89007 | 25.01333 | 34048 ft | 442 kts | 319° |
| 2026-04-27 13:12 | 35.93826 | 24.96592 | 34049 ft | 443 kts | 319° |
| 2026-04-27 13:13 | 35.98627 | 24.91861 | 34053 ft | 443 kts | 319° |
| 2026-04-27 13:13 | 36.03432 | 24.87119 | 34049 ft | 443 kts | 319° |
| 2026-04-27 13:14 | 36.08223 | 24.82382 | 34052 ft | 444 kts | 319° |
| 2026-04-27 13:14 | 36.13063 | 24.77585 | 34060 ft | 446 kts | 319° |
| 2026-04-27 13:15 | 36.17868 | 24.72817 | 34058 ft | 445 kts | 319° |
| 2026-04-27 13:15 | 36.22710 | 24.68004 | 34065 ft | 448 kts | 320° |
| 2026-04-27 13:16 | 36.27554 | 24.63182 | 34060 ft | 446 kts | 320° |
| 2026-04-27 13:16 | 36.32385 | 24.58365 | 34069 ft | 446 kts | 320° |
| 2026-04-27 13:17 | 36.37211 | 24.53544 | 34066 ft | 447 kts | 320° |
| 2026-04-27 13:17 | 36.42041 | 24.48712 | 34072 ft | 448 kts | 320° |
| 2026-04-27 13:18 | 36.46874 | 24.43868 | 34070 ft | 448 kts | 320° |
| 2026-04-27 13:18 | 36.51725 | 24.38999 | 34069 ft | 449 kts | 320° |
| 2026-04-27 13:19 | 36.56583 | 24.34114 | 34083 ft | 449 kts | 319° |
| 2026-04-27 13:19 | 36.61435 | 24.29227 | 34085 ft | 450 kts | 319° |
| 2026-04-27 13:20 | 36.66283 | 24.24336 | 34088 ft | 450 kts | 319° |
| 2026-04-27 13:20 | 36.71148 | 24.19420 | 34085 ft | 450 kts | 319° |
| 2026-04-27 13:21 | 36.75988 | 24.14520 | 34088 ft | 451 kts | 319° |
| 2026-04-27 13:21 | 36.80844 | 24.09596 | 34085 ft | 453 kts | 319° |
| 2026-04-27 13:22 | 36.85762 | 24.04602 | 34097 ft | 453 kts | 319° |
| 2026-04-27 13:22 | 36.90643 | 23.99636 | 34098 ft | 453 kts | 319° |
| 2026-04-27 13:23 | 36.95531 | 23.94659 | 34094 ft | 453 kts | 319° |
| 2026-04-27 13:23 | 37.00397 | 23.89699 | 34095 ft | 453 kts | 319° |
| 2026-04-27 13:24 | 37.05250 | 23.84742 | 34093 ft | 454 kts | 319° |
| 2026-04-27 13:24 | 37.10141 | 23.79738 | 34093 ft | 455 kts | 319° |
| 2026-04-27 13:25 | 37.15043 | 23.74714 | 34096 ft | 455 kts | 319° |
| 2026-04-27 13:25 | 37.19936 | 23.69691 | 34096 ft | 455 kts | 319° |
| 2026-04-27 13:26 | 37.24850 | 23.64637 | 34095 ft | 455 kts | 320° |
| 2026-04-27 13:26 | 37.29753 | 23.59586 | 34096 ft | 453 kts | 320° |
| 2026-04-27 13:27 | 37.34619 | 23.54565 | 34093 ft | 455 kts | 320° |
| 2026-04-27 13:27 | 37.39484 | 23.49535 | 34095 ft | 453 kts | 320° |
| 2026-04-27 13:28 | 37.44384 | 23.44461 | 34099 ft | 454 kts | 320° |
| 2026-04-27 13:28 | 37.49240 | 23.39423 | 34107 ft | 454 kts | 320° |
| 2026-04-27 13:29 | 37.54120 | 23.34352 | 34110 ft | 455 kts | 319° |
| 2026-04-27 13:29 | 37.58986 | 23.29286 | 34118 ft | 455 kts | 319° |
| 2026-04-27 13:30 | 37.63891 | 23.24171 | 34114 ft | 456 kts | 319° |
| 2026-04-27 13:30 | 37.68769 | 23.19074 | 34120 ft | 454 kts | 319° |
| 2026-04-27 13:31 | 37.73637 | 23.13979 | 34119 ft | 455 kts | 319° |
| 2026-04-27 13:31 | 37.78519 | 23.08861 | 34131 ft | 455 kts | 319° |
| 2026-04-27 13:32 | 37.83368 | 23.03769 | 34133 ft | 456 kts | 319° |
| 2026-04-27 13:32 | 37.88271 | 22.98610 | 34144 ft | 459 kts | 319° |
| 2026-04-27 13:33 | 37.93000 | 22.93224 | 34139 ft | 456 kts | 310° |
| 2026-04-27 13:33 | 37.96782 | 22.86756 | 34125 ft | 456 kts | 305° |
| 2026-04-27 13:34 | 38.00412 | 22.80180 | 34111 ft | 456 kts | 305° |
| 2026-04-27 13:34 | 38.04013 | 22.73633 | 34088 ft | 456 kts | 305° |
| 2026-04-27 13:35 | 38.07642 | 22.67019 | 34092 ft | 455 kts | 305° |